createdAt,value
2023-02-15T00:00:30.340Z,97887.75
2023-02-15T00:02:58.974Z,97888.72
2023-02-15T00:05:30.607Z,97885.63
2023-02-15T00:07:58.967Z,97886.75
2023-02-15T00:10:28.276Z,97891.81
2023-02-15T00:12:56.530Z,97881.84
2023-02-15T00:15:26.931Z,97896.00
2023-02-15T00:17:56.724Z,97891.97
2023-02-15T00:20:25.062Z,97888.00
2023-02-15T00:22:56.012Z,97878.06
2023-02-15T00:25:24.312Z,97887.59
2023-02-15T00:27:53.586Z,97879.47
2023-02-15T00:30:23.136Z,97881.16
2023-02-15T00:32:52.200Z,97881.16
2023-02-15T00:35:20.547Z,97878.78
2023-02-15T00:37:49.977Z,97862.66
2023-02-15T00:40:20.090Z,97874.13
2023-02-15T00:42:48.840Z,97869.94
2023-02-15T00:45:17.447Z,97875.69
2023-02-15T00:47:47.776Z,97867.69
2023-02-15T00:50:17.605Z,97857.47
2023-02-15T00:52:48.622Z,97857.31
2023-02-15T00:55:17.532Z,97855.06
2023-02-15T00:57:47.715Z,97846.66
2023-02-15T01:00:16.461Z,97857.31
2023-02-15T01:02:46.292Z,97838.50
2023-02-15T01:05:14.765Z,97851.31
2023-02-15T01:07:43.447Z,97850.59
2023-02-15T01:10:12.472Z,97849.88
2023-02-15T01:12:40.796Z,97838.94
2023-02-15T01:15:11.223Z,97835.88
2023-02-15T01:17:39.936Z,97848.63
2023-02-15T01:20:09.881Z,97840.63
2023-02-15T01:22:38.200Z,97833.59
2023-02-15T01:25:07.353Z,97832.66
2023-02-15T01:27:36.084Z,97837.69
2023-02-15T01:30:06.670Z,97831.53
2023-02-15T01:32:36.393Z,97829.84
2023-02-15T01:35:05.070Z,97820.88
2023-02-15T01:37:34.198Z,97830.38
2023-02-15T01:40:03.284Z,97824.22
2023-02-15T01:42:32.061Z,97822.00
2023-02-15T01:45:02.597Z,97811.06
2023-02-15T01:47:38.179Z,97817.22
2023-02-15T01:50:14.695Z,97813.84
2023-02-15T01:52:49.614Z,97804.16
2023-02-15T01:55:18.605Z,97799.44
2023-02-15T01:57:48.916Z,97788.06
2023-02-15T02:00:18.984Z,97793.66
2023-02-15T02:02:53.406Z,97792.94
2023-02-15T02:05:28.367Z,97782.44
2023-02-15T02:07:59.374Z,97786.78
2023-02-15T02:10:28.238Z,97785.41
2023-02-15T02:13:02.055Z,97785.38
2023-02-15T02:15:41.091Z,97786.25
2023-02-15T02:18:26.183Z,97776.84
2023-02-15T02:21:45.199Z,97776.31
2023-02-15T02:24:48.966Z,97773.91
2023-02-15T02:27:28.074Z,97769.97
2023-02-15T02:30:41.279Z,97762.25
2023-02-15T02:33:40.605Z,97758.63
2023-02-15T02:36:18.374Z,97756.09
2023-02-15T02:39:02.872Z,97763.09
2023-02-15T02:41:39.266Z,97757.94
2023-02-15T02:44:15.772Z,97763.53
2023-02-15T02:46:52.136Z,97751.75
2023-02-15T02:49:35.704Z,97764.66
2023-02-15T02:52:06.657Z,97769.84
2023-02-15T02:54:37.864Z,97765.91
2023-02-15T02:57:11.098Z,97768.84
2023-02-15T02:59:48.480Z,97762.94
2023-02-15T03:02:22.687Z,97758.75
2023-02-15T03:04:59.921Z,97758.22
2023-02-15T03:07:30.687Z,97757.78
2023-02-15T03:10:04.283Z,97743.75
2023-02-15T03:12:35.097Z,97735.94
2023-02-15T03:15:09.978Z,97751.19
2023-02-15T03:17:44.509Z,97749.66
2023-02-15T03:20:17.959Z,97754.84
2023-02-15T03:22:51.075Z,97745.88
2023-02-15T03:25:24.452Z,97755.53
2023-02-15T03:27:58.188Z,97752.72
2023-02-15T03:30:28.753Z,97757.91
2023-02-15T03:33:01.408Z,97756.22
2023-02-15T03:35:38.503Z,97756.78
2023-02-15T03:38:11.490Z,97762.69
2023-02-15T03:40:59.779Z,97769.94
2023-02-15T03:43:35.710Z,97760.00
2023-02-15T03:46:10.741Z,97759.63
2023-02-15T03:48:43.493Z,97765.91
2023-02-15T03:51:35.362Z,97764.22
2023-02-15T03:54:09.550Z,97759.75
2023-02-15T03:56:39.903Z,97763.25
2023-02-15T03:59:27.156Z,97763.97
2023-02-15T04:02:08.637Z,97759.75
2023-02-15T04:04:38.971Z,97763.09
2023-02-15T04:07:10.862Z,97772.94
2023-02-15T04:09:57.094Z,97763.97
2023-02-15T04:12:26.478Z,97765.78
2023-02-15T04:15:12.298Z,97761.97
2023-02-15T04:17:41.602Z,97760.44
2023-02-15T04:20:28.322Z,97761.56
2023-02-15T04:23:16.516Z,97762.56
2023-02-15T04:25:44.927Z,97759.75
2023-02-15T04:28:14.781Z,97756.91
2023-02-15T04:30:43.133Z,97752.31
2023-02-15T04:33:12.348Z,97756.53
2023-02-15T04:35:40.659Z,97758.47
2023-02-15T04:38:11.377Z,97761.44
2023-02-15T04:40:39.840Z,97762.69
2023-02-15T04:43:08.664Z,97765.22
2023-02-15T04:45:37.041Z,97733.09
2023-02-15T04:48:06.030Z,97750.75
2023-02-15T04:50:34.337Z,97755.94
2023-02-15T04:53:02.726Z,97764.06
2023-02-15T04:55:32.883Z,97762.09
2023-02-15T04:58:01.228Z,97762.09
2023-02-15T05:00:30.151Z,97759.56
2023-02-15T05:02:58.512Z,97757.44
2023-02-15T05:05:27.639Z,97758.16
2023-02-15T05:07:56.075Z,97758.44
2023-02-15T05:10:24.938Z,97757.19
2023-02-15T05:12:54.780Z,97764.19
2023-02-15T05:15:24.946Z,97751.69
2023-02-15T05:17:53.791Z,97760.97
2023-02-15T05:20:22.149Z,97757.22
2023-02-15T05:22:51.043Z,97766.75
2023-02-15T05:25:36.899Z,97766.16
2023-02-15T05:28:22.822Z,97763.78
2023-02-15T05:31:02.261Z,97762.00
2023-02-15T05:33:31.243Z,97767.16
2023-02-15T05:36:01.355Z,97770.38
2023-02-15T05:38:31.212Z,97761.56
2023-02-15T05:41:00.344Z,97769.84
2023-02-15T05:43:30.448Z,97771.22
2023-02-15T05:45:59.406Z,97766.59
2023-02-15T05:48:29.418Z,97767.91
2023-02-15T05:51:02.104Z,97766.19
2023-02-15T05:53:32.521Z,97758.19
2023-02-15T05:56:01.618Z,97772.34
2023-02-15T05:58:34.875Z,97770.38
2023-02-15T06:01:10.057Z,97767.88
2023-02-15T06:03:38.920Z,97770.97
2023-02-15T06:06:07.979Z,97775.31
2023-02-15T06:08:38.621Z,97786.38
2023-02-15T06:11:07.917Z,97786.25
2023-02-15T06:13:38.988Z,97778.66
2023-02-15T06:16:08.371Z,97779.38
2023-02-15T06:18:37.057Z,97779.81
2023-02-15T06:21:05.947Z,97788.06
2023-02-15T06:23:34.289Z,97787.91
2023-02-15T06:26:02.831Z,97787.22
2023-02-15T06:28:32.497Z,97783.56
2023-02-15T06:31:02.288Z,97787.22
2023-02-15T06:33:34.718Z,97785.81
2023-02-15T06:36:05.138Z,97784.16
2023-02-15T06:38:33.606Z,97785.13
2023-02-15T06:41:02.070Z,97785.38
2023-02-15T06:43:30.472Z,97782.28
2023-02-15T06:46:01.166Z,97786.47
2023-02-15T06:48:31.085Z,97801.88
2023-02-15T06:51:00.394Z,97804.38
2023-02-15T06:53:28.765Z,97806.09
2023-02-15T06:56:04.828Z,97810.16
2023-02-15T06:58:33.174Z,97814.94
2023-02-15T07:01:01.631Z,97814.94
2023-02-15T07:03:32.601Z,97805.84
2023-02-15T07:06:03.480Z,97803.47
2023-02-15T07:08:32.651Z,97803.47
2023-02-15T07:11:21.479Z,97804.06
2023-02-15T07:13:50.262Z,97802.34
2023-02-15T07:16:18.670Z,97802.06
2023-02-15T07:18:49.804Z,97808.47
2023-02-15T07:21:18.210Z,97799.50
2023-02-15T07:23:47.569Z,97795.16
2023-02-15T07:26:15.936Z,97786.34
2023-02-15T07:28:45.913Z,97797.81
2023-02-15T07:31:14.275Z,97783.56
2023-02-15T07:33:43.342Z,97798.81
2023-02-15T07:36:13.930Z,97793.38
2023-02-15T07:38:44.079Z,97797.28
2023-02-15T07:41:14.932Z,97792.88
2023-02-15T07:43:45.003Z,97786.88
2023-02-15T07:46:17.890Z,97785.75
2023-02-15T07:48:47.300Z,97789.38
2023-02-15T07:51:17.888Z,97774.56
2023-02-15T07:53:46.740Z,97785.25
2023-02-15T07:56:17.142Z,97788.31
2023-02-15T07:58:56.594Z,97786.63
2023-02-15T08:01:28.260Z,97784.94
2023-02-15T08:03:57.895Z,97787.00
2023-02-15T08:06:32.039Z,97791.44
2023-02-15T08:09:01.772Z,97775.03
2023-02-15T08:11:33.967Z,97792.66
2023-02-15T08:14:05.546Z,97789.44
2023-02-15T08:16:36.757Z,97775.97
2023-02-15T08:19:08.636Z,97793.25
2023-02-15T08:21:40.269Z,97794.09
2023-02-15T08:24:10.662Z,97782.06
2023-02-15T08:26:42.195Z,97782.53
2023-02-15T08:29:12.124Z,97785.34
2023-02-15T08:31:42.338Z,97775.94
2023-02-15T08:34:12.382Z,97784.94
2023-02-15T08:36:46.096Z,97782.81
2023-02-15T08:39:15.909Z,97792.34
2023-02-15T08:41:46.760Z,97767.09
2023-02-15T08:44:17.238Z,97785.91
2023-02-15T08:46:47.885Z,97777.22
2023-02-15T08:49:19.526Z,97777.41
2023-02-15T08:51:50.124Z,97771.22
2023-02-15T08:54:20.984Z,97771.94
2023-02-15T08:56:49.977Z,97771.38
2023-02-15T08:59:21.806Z,97768.56
2023-02-15T09:01:51.639Z,97771.13
2023-02-15T09:04:20.223Z,97769.97
2023-02-15T09:06:51.147Z,97768.84
2023-02-15T09:09:21.896Z,97768.03
2023-02-15T09:11:56.819Z,97750.78
2023-02-15T09:14:28.453Z,97771.09
2023-02-15T09:16:57.146Z,97772.91
2023-02-15T09:19:26.812Z,97773.91
2023-02-15T09:21:56.536Z,97772.50
2023-02-15T09:24:25.716Z,97774.75
2023-02-15T09:26:54.533Z,97771.53
2023-02-15T09:29:24.087Z,97779.78
2023-02-15T09:31:54.473Z,97755.53
2023-02-15T09:34:24.366Z,97776.69
2023-02-15T09:36:53.087Z,97764.94
2023-02-15T09:39:25.054Z,97778.66
2023-02-15T09:42:29.388Z,97777.78
2023-02-15T09:45:09.337Z,97774.97
2023-02-15T09:47:55.858Z,97780.97
2023-02-15T09:50:36.384Z,97784.63
2023-02-15T09:53:21.984Z,97777.25
2023-02-15T09:56:01.215Z,97791.06
2023-02-15T09:58:41.242Z,97789.38
2023-02-15T10:01:20.983Z,97789.25
2023-02-15T10:04:22.510Z,97777.44
2023-02-15T10:07:04.070Z,97790.09
2023-02-15T10:09:41.624Z,97770.28
2023-02-15T10:12:36.876Z,97785.13
2023-02-15T10:15:29.378Z,97781.09
2023-02-15T10:18:18.018Z,97784.38
2023-02-15T10:20:56.935Z,97787.31
2023-02-15T10:23:52.915Z,97777.47
2023-02-15T10:26:23.859Z,97769.34
2023-02-15T10:28:59.903Z,97770.38
2023-02-15T10:31:36.507Z,97767.16
2023-02-15T10:34:18.142Z,97761.66
2023-02-15T10:37:09.500Z,97753.75
2023-02-15T10:39:48.073Z,97752.88
2023-02-15T10:42:29.595Z,97749.47
2023-02-15T10:45:13.617Z,97722.97
2023-02-15T10:48:01.361Z,97740.16
2023-02-15T10:50:45.621Z,97741.00
2023-02-15T10:53:34.064Z,97739.91
2023-02-15T10:56:13.488Z,97734.41
2023-02-15T10:58:59.719Z,97726.41
2023-02-15T11:01:37.071Z,97739.81
2023-02-15T11:04:22.329Z,97748.69
2023-02-15T11:06:55.215Z,97744.16
2023-02-15T11:09:27.662Z,97732.84
2023-02-15T11:12:01.019Z,97728.22
2023-02-15T11:14:40.030Z,97723.31
2023-02-15T11:17:16.645Z,97717.47
2023-02-15T11:19:55.183Z,97720.00
2023-02-15T11:22:24.406Z,97723.75
2023-02-15T11:24:55.461Z,97713.97
2023-02-15T11:27:27.997Z,97714.63
2023-02-15T11:30:02.795Z,97705.78
2023-02-15T11:32:35.914Z,97707.47
2023-02-15T11:35:12.785Z,97698.50
2023-02-15T11:37:47.074Z,97699.72
2023-02-15T11:40:25.734Z,97699.38
2023-02-15T11:42:57.636Z,97692.03
2023-02-15T11:45:31.144Z,97681.41
2023-02-15T11:48:02.712Z,97685.75
2023-02-15T11:50:34.289Z,97681.97
2023-02-15T11:53:06.944Z,97677.25
2023-02-15T11:55:36.087Z,97678.63
2023-02-15T11:58:12.239Z,97676.56
2023-02-15T12:00:44.528Z,97674.28
2023-02-15T12:03:23.385Z,97669.16
2023-02-15T12:05:58.389Z,97669.78
2023-02-15T12:08:27.756Z,97675.69
2023-02-15T12:11:02.847Z,97668.50
2023-02-15T12:13:31.594Z,97666.38
2023-02-15T12:16:10.511Z,97652.69
2023-02-15T12:18:45.230Z,97641.78
2023-02-15T12:21:16.280Z,97662.44
2023-02-15T12:23:50.139Z,97642.50
2023-02-15T12:26:27.632Z,97655.75
2023-02-15T12:29:03.532Z,97653.91
2023-02-15T12:31:36.034Z,97655.78
2023-02-15T12:34:14.755Z,97651.28
2023-02-15T12:36:47.197Z,97644.09
2023-02-15T12:39:22.252Z,97641.16
2023-02-15T12:42:03.097Z,97634.81
2023-02-15T12:44:35.135Z,97631.31
2023-02-15T12:47:05.804Z,97631.47
2023-02-15T12:49:37.007Z,97633.47
2023-02-15T12:52:09.319Z,97624.72
2023-02-15T12:54:41.498Z,97624.84
2023-02-15T12:57:31.838Z,97614.72
2023-02-15T13:00:03.503Z,97593.25
2023-02-15T13:02:39.336Z,97601.03
2023-02-15T13:05:20.741Z,97608.88
2023-02-15T13:07:52.907Z,97605.88
2023-02-15T13:10:26.474Z,97614.41
2023-02-15T13:12:55.954Z,97602.72
2023-02-15T13:15:29.160Z,97589.38
2023-02-15T13:17:59.648Z,97602.69
2023-02-15T13:20:30.525Z,97606.38
2023-02-15T13:23:05.644Z,97589.81
2023-02-15T13:25:42.457Z,97596.03
2023-02-15T13:28:17.237Z,97595.34
2023-02-15T13:30:48.041Z,97592.53
2023-02-15T13:33:22.024Z,97589.47
2023-02-15T13:36:01.630Z,97584.47
2023-02-15T13:38:52.329Z,97577.00
2023-02-15T13:41:25.794Z,97576.84
2023-02-15T13:44:04.658Z,97581.63
2023-02-15T13:46:51.074Z,97577.47
2023-02-15T13:49:34.875Z,97587.19
2023-02-15T13:52:15.663Z,97579.97
2023-02-15T13:55:16.110Z,97574.16
2023-02-15T13:58:28.834Z,97579.34
2023-02-15T14:01:10.902Z,97575.81
2023-02-15T14:04:10.613Z,97571.38
2023-02-15T14:06:51.231Z,97572.75
2023-02-15T14:09:33.417Z,97575.47
2023-02-15T14:12:15.884Z,97563.66
2023-02-15T14:15:02.409Z,97562.44
2023-02-15T14:17:45.565Z,97568.16
2023-02-15T14:20:22.032Z,97572.53
2023-02-15T14:22:56.822Z,97569.50
2023-02-15T14:25:31.632Z,97573.53
2023-02-15T14:28:07.780Z,97580.84
2023-02-15T14:30:41.644Z,97562.94
2023-02-15T14:33:17.459Z,97562.09
2023-02-15T14:35:46.514Z,97570.13
2023-02-15T14:38:21.405Z,97551.75
2023-02-15T14:41:04.182Z,97515.44
2023-02-15T14:43:43.839Z,97547.41
2023-02-15T14:46:22.211Z,97560.16
2023-02-15T14:48:53.326Z,97555.09
2023-02-15T14:51:58.214Z,97553.94
2023-02-15T14:54:55.126Z,97561.28
2023-02-15T14:57:28.592Z,97560.78
2023-02-15T14:59:59.294Z,97565.13
2023-02-15T15:02:32.026Z,97467.91
2023-02-15T15:05:10.552Z,97552.97
2023-02-15T15:07:46.545Z,97560.81
2023-02-15T15:10:40.825Z,97568.72
2023-02-15T15:13:53.504Z,97563.69
2023-02-15T15:16:49.304Z,97565.50
2023-02-15T15:19:57.191Z,97561.16
2023-02-15T15:22:27.532Z,97559.81
2023-02-15T15:24:57.856Z,97563.69
2023-02-15T15:27:44.689Z,97556.81
2023-02-15T15:30:52.581Z,97562.31
2023-02-15T15:34:15.707Z,97562.66
2023-02-15T15:37:25.734Z,97563.28
2023-02-15T15:40:36.860Z,97553.59
2023-02-15T15:43:37.197Z,97552.88
2023-02-15T15:46:20.382Z,97549.34
2023-02-15T15:48:48.938Z,97554.84
2023-02-15T15:51:22.973Z,97551.34
2023-02-15T15:53:54.207Z,97543.13
2023-02-15T15:56:26.602Z,97558.72
2023-02-15T15:58:58.193Z,97530.78
2023-02-15T16:01:31.088Z,97554.41
2023-02-15T16:04:01.352Z,97554.88
2023-02-15T16:06:32.246Z,97561.41
2023-02-15T16:09:13.022Z,97570.09
2023-02-15T16:11:42.305Z,97567.78
2023-02-15T16:14:15.068Z,97569.25
2023-02-15T16:16:53.188Z,97564.25
2023-02-15T16:19:26.231Z,97564.75
2023-02-15T16:21:57.810Z,97567.78
2023-02-15T16:24:57.840Z,97563.75
2023-02-15T16:27:38.561Z,97567.63
2023-02-15T16:30:24.655Z,97561.38
2023-02-15T16:32:57.382Z,97562.63
2023-02-15T16:35:25.852Z,97569.28
2023-02-15T16:37:54.178Z,97569.31
2023-02-15T16:40:36.505Z,97567.34
2023-02-15T16:43:07.591Z,97574.19
2023-02-15T16:45:38.601Z,97572.72
2023-02-15T16:48:14.318Z,97577.19
2023-02-15T16:50:50.283Z,97572.69
2023-02-15T16:53:23.132Z,97577.00
2023-02-15T16:55:55.081Z,97573.47
2023-02-15T16:58:30.405Z,97563.16
2023-02-15T17:01:01.877Z,97583.22
2023-02-15T17:03:32.496Z,97583.94
2023-02-15T17:06:03.880Z,97563.84
2023-02-15T17:08:35.379Z,97570.38
2023-02-15T17:11:22.194Z,97572.06
2023-02-15T17:14:15.364Z,97574.19
2023-02-15T17:16:49.856Z,97579.19
2023-02-15T17:19:24.582Z,97571.84
2023-02-15T17:21:56.123Z,97575.19
2023-02-15T17:24:36.398Z,97576.56
2023-02-15T17:27:12.368Z,97585.63
2023-02-15T17:29:43.516Z,97579.88
2023-02-15T17:32:19.153Z,97594.28
2023-02-15T17:35:01.892Z,97584.59
2023-02-15T17:37:33.280Z,97586.38
2023-02-15T17:40:09.390Z,97584.84
2023-02-15T17:42:37.723Z,97594.19
2023-02-15T17:45:07.383Z,97590.88
2023-02-15T17:47:36.276Z,97591.38
2023-02-15T17:50:08.428Z,97601.44
2023-02-15T17:52:38.101Z,97604.50
2023-02-15T17:55:32.994Z,97605.53
2023-02-15T17:58:02.469Z,97607.47
2023-02-15T18:00:49.755Z,97594.59
2023-02-15T18:03:36.687Z,97601.75
2023-02-15T18:06:25.462Z,97605.72
2023-02-15T18:09:12.693Z,97592.13
2023-02-15T18:11:42.890Z,97601.81
2023-02-15T18:14:12.036Z,97611.88
2023-02-15T18:16:43.871Z,97609.22
2023-02-15T18:19:16.161Z,97606.75
2023-02-15T18:21:47.075Z,97608.88
2023-02-15T18:24:20.544Z,97598.81
2023-02-15T18:26:49.560Z,97599.75
2023-02-15T18:29:17.941Z,97603.00
2023-02-15T18:31:49.409Z,97604.91
2023-02-15T18:34:26.007Z,97602.59
2023-02-15T18:36:56.792Z,97613.63
2023-02-15T18:39:28.432Z,97614.28
2023-02-15T18:41:57.836Z,97608.63
2023-02-15T18:44:27.253Z,97608.41
2023-02-15T18:46:55.863Z,97604.72
2023-02-15T18:49:24.433Z,97614.63
2023-02-15T18:51:55.639Z,97618.53
2023-02-15T18:54:26.792Z,97617.84
2023-02-15T18:56:57.272Z,97610.69
2023-02-15T18:59:28.509Z,97617.22
2023-02-15T19:02:00.282Z,97615.06
2023-02-15T19:04:29.244Z,97615.56
2023-02-15T19:06:58.902Z,97618.94
2023-02-15T19:09:28.107Z,97620.28
2023-02-15T19:11:57.448Z,97605.13
2023-02-15T19:14:29.557Z,97608.56
2023-02-15T19:16:58.960Z,97601.94
2023-02-15T19:19:28.499Z,97610.34
2023-02-15T19:21:57.167Z,97617.25
2023-02-15T19:24:37.298Z,97611.47
2023-02-15T19:27:07.994Z,97617.00
2023-02-15T19:29:36.731Z,97611.78
2023-02-15T19:32:05.662Z,97612.06
2023-02-15T19:34:34.809Z,97601.13
2023-02-15T19:37:03.474Z,97613.53
2023-02-15T19:39:38.950Z,97631.09
2023-02-15T19:42:11.096Z,97621.63
2023-02-15T19:44:43.777Z,97619.47
2023-02-15T19:47:13.590Z,97610.00
2023-02-15T19:49:42.302Z,97615.19
2023-02-15T19:52:17.458Z,97612.19
2023-02-15T19:54:49.182Z,97606.13
2023-02-15T19:57:17.961Z,97610.19
2023-02-15T19:59:46.320Z,97600.34
2023-02-15T20:02:15.625Z,97609.81
2023-02-15T20:04:44.459Z,97614.47
2023-02-15T20:07:23.228Z,97612.34
2023-02-15T20:09:53.364Z,97609.50
2023-02-15T20:12:23.838Z,97596.16
2023-02-15T20:14:53.684Z,97601.00
2023-02-15T20:17:22.003Z,97600.41
2023-02-15T20:19:50.966Z,97596.88
2023-02-15T20:22:23.735Z,97597.59
2023-02-15T20:24:55.609Z,97600.78
2023-02-15T20:27:24.809Z,97602.00
2023-02-15T20:29:56.702Z,97597.44
2023-02-15T20:32:26.015Z,97596.31
2023-02-15T20:34:54.642Z,97585.78
2023-02-15T20:37:26.390Z,97591.28
2023-02-15T20:39:56.415Z,97600.59
2023-02-15T20:42:25.456Z,97595.03
2023-02-15T20:44:53.787Z,97596.28
2023-02-15T20:47:22.645Z,97602.78
2023-02-15T20:49:51.608Z,97599.31
2023-02-15T20:52:21.729Z,97582.47
2023-02-15T20:54:50.769Z,97588.81
2023-02-15T20:57:20.447Z,97593.16
2023-02-15T20:59:49.096Z,97593.44
2023-02-15T21:02:20.563Z,97594.97
2023-02-15T21:04:48.919Z,97595.53
2023-02-15T21:07:18.497Z,97594.88
2023-02-15T21:09:47.964Z,97595.81
2023-02-15T21:12:18.789Z,97588.59
2023-02-15T21:14:49.186Z,97585.59
2023-02-15T21:17:18.790Z,97586.13
2023-02-15T21:19:47.190Z,97582.47
2023-02-15T21:22:17.582Z,97578.88
2023-02-15T21:24:50.317Z,97582.84
2023-02-15T21:27:19.470Z,97573.13
2023-02-15T21:29:49.229Z,97585.69
2023-02-15T21:32:19.283Z,97591.25
2023-02-15T21:34:47.707Z,97586.88
2023-02-15T21:37:29.486Z,97594.53
2023-02-15T21:39:57.930Z,97591.78
2023-02-15T21:42:46.745Z,97586.31
2023-02-15T21:45:35.300Z,97588.91
2023-02-15T21:48:04.472Z,97595.13
2023-02-15T21:50:50.884Z,97586.69
2023-02-15T21:53:23.337Z,97592.00
2023-02-15T21:55:52.959Z,97592.91
2023-02-15T21:58:24.585Z,97592.47
2023-02-15T22:00:55.745Z,97600.31
2023-02-15T22:03:26.087Z,97594.16
2023-02-15T22:05:54.434Z,97591.25
2023-02-15T22:08:23.022Z,97592.91
2023-02-15T22:10:51.950Z,97591.25
2023-02-15T22:13:27.587Z,97584.16
2023-02-15T22:15:58.368Z,97586.69
2023-02-15T22:18:33.381Z,97575.22
2023-02-15T22:21:04.573Z,97574.22
2023-02-15T22:23:33.130Z,97575.97
2023-02-15T22:26:06.328Z,97572.72
2023-02-15T22:28:36.974Z,97576.53
2023-02-15T22:31:11.594Z,97567.81
2023-02-15T22:33:40.577Z,97567.47
2023-02-15T22:36:22.931Z,97576.28
2023-02-15T22:38:51.313Z,97565.22
2023-02-15T22:41:21.222Z,97566.50
2023-02-15T22:43:50.408Z,97572.72
2023-02-15T22:46:22.693Z,97575.66
2023-02-15T22:48:51.897Z,97567.72
2023-02-15T22:51:22.575Z,97569.72
2023-02-15T22:53:52.241Z,97555.91
2023-02-15T22:56:27.350Z,97565.75
2023-02-15T22:59:01.458Z,97564.31
2023-02-15T23:01:34.179Z,97566.56
2023-02-15T23:04:04.230Z,97562.56
2023-02-15T23:06:35.340Z,97560.72
2023-02-15T23:09:05.094Z,97560.56
2023-02-15T23:11:53.009Z,97566.31
2023-02-15T23:14:28.140Z,97559.81
2023-02-15T23:16:58.025Z,97565.66
2023-02-15T23:19:27.737Z,97568.97
2023-02-15T23:21:56.370Z,97559.13
2023-02-15T23:24:28.430Z,97559.25
2023-02-15T23:27:17.886Z,97565.81
2023-02-15T23:29:46.263Z,97551.09
2023-02-15T23:32:17.328Z,97553.00
2023-02-15T23:34:45.765Z,97547.69
2023-02-15T23:37:15.794Z,97554.56
2023-02-15T23:40:01.673Z,97541.59
2023-02-15T23:42:34.706Z,97547.63
2023-02-15T23:45:03.789Z,97555.06
2023-02-15T23:47:53.933Z,97546.69
2023-02-15T23:50:28.127Z,97543.06
2023-02-15T23:52:58.847Z,97548.47
2023-02-15T23:55:35.939Z,97543.13
2023-02-15T23:58:06.629Z,97552.47
